Time,TemperatureF,DewpointF,PressureIn,WindDirection,WindDirectionDegrees,WindSpeedMPH,WindSpeedGustMPH,Humidity,HourlyPrecipIn,Conditions,Clouds,dailyrainin,SoftwareType,DateUTC
2013-01-12 00:00:00,33.2,25.8,30.03,NE,34,0.0,0.0,74,0.00,,---,0.00,VWS V14.01,2013-01-12 08:00:00,
2013-01-12 00:09:00,33.1,25.7,30.03,NE,34,0.0,0.0,74,0.00,,---,0.00,VWS V14.01,2013-01-12 08:09:00,
2013-01-12 00:19:00,32.9,25.9,30.03,NE,34,0.0,0.0,75,0.00,,---,0.00,VWS V14.01,2013-01-12 08:19:00,
2013-01-12 00:24:00,32.9,25.9,30.03,NE,34,0.0,0.0,75,0.00,,---,0.00,VWS V14.01,2013-01-12 08:24:00,
2013-01-12 00:34:00,32.8,25.8,30.03,NE,34,0.0,0.0,75,0.00,,---,0.00,VWS V14.01,2013-01-12 08:34:00,
2013-01-12 00:39:00,32.8,25.8,30.03,NE,34,0.0,0.0,75,0.00,,---,0.00,VWS V14.01,2013-01-12 08:39:00,
2013-01-12 00:49:00,32.8,26.1,30.02,NE,34,0.0,0.0,76,0.00,,---,0.00,VWS V14.01,2013-01-12 08:49:00,
2013-01-12 00:59:00,33.1,26.4,30.02,NE,34,0.0,0.0,76,0.00,,---,0.00,VWS V14.01,2013-01-12 08:59:00,
2013-01-12 01:04:00,33.1,26.4,30.02,NE,34,0.0,0.0,76,0.00,,---,0.00,VWS V14.01,2013-01-12 09:04:00,
2013-01-12 01:09:00,33.1,26.4,30.02,NE,34,0.0,0.0,76,0.00,,---,0.00,VWS V14.01,2013-01-12 09:09:00,
2013-01-12 01:14:00,33.1,26.7,30.02,NE,34,0.0,0.0,77,0.00,,---,0.00,VWS V14.01,2013-01-12 09:14:00,
2013-01-12 01:24:00,33.1,26.7,30.02,NE,34,0.0,0.0,77,0.00,,---,0.00,VWS V14.01,2013-01-12 09:24:00,
2013-01-12 01:29:00,32.9,26.5,30.02,NE,34,0.0,0.0,77,0.00,,---,0.00,VWS V14.01,2013-01-12 09:29:00,
2013-01-12 01:34:00,32.8,26.4,30.02,NE,34,0.0,0.0,77,0.00,,---,0.00,VWS V14.01,2013-01-12 09:34:00,
2013-01-12 01:39:00,32.8,26.4,30.02,NE,34,0.0,0.0,77,0.00,,---,0.00,VWS V14.01,2013-01-12 09:39:00,
2013-01-12 01:44:00,32.7,26.3,30.03,NE,34,0.0,0.0,77,0.00,,---,0.00,VWS V14.01,2013-01-12 09:44:00,
2013-01-12 01:54:00,32.7,26.3,30.03,NE,34,0.0,0.0,77,0.00,,---,0.00,VWS V14.01,2013-01-12 09:54:00,
2013-01-12 01:59:00,32.7,26.3,30.02,NE,34,0.0,0.0,77,0.00,,---,0.00,VWS V14.01,2013-01-12 09:59:00,
2013-01-12 02:04:00,32.7,26.3,30.02,NE,34,0.0,0.0,77,0.00,,---,0.00,VWS V14.01,2013-01-12 10:04:00,
2013-01-12 02:14:00,32.7,26.3,30.02,NE,34,0.0,0.0,77,0.00,,---,0.00,VWS V14.01,2013-01-12 10:14:00,
2013-01-12 02:19:00,32.8,26.7,30.02,NE,34,0.0,0.0,78,0.00,,---,0.00,VWS V14.01,2013-01-12 10:19:00,
2013-01-12 02:24:00,32.7,26.3,30.02,NE,34,0.0,0.0,77,0.00,,---,0.00,VWS V14.01,2013-01-12 10:24:00,
2013-01-12 02:29:00,32.5,26.1,30.01,NE,34,0.0,0.0,77,0.00,,---,0.00,VWS V14.01,2013-01-12 10:29:00,
2013-01-12 02:39:00,32.4,26.0,30.01,NE,34,0.0,0.0,77,0.00,,---,0.00,VWS V14.01,2013-01-12 10:39:00,
2013-01-12 02:49:00,32.1,25.7,30.02,NE,34,0.0,0.0,77,0.00,,---,0.00,VWS V14.01,2013-01-12 10:49:00,
2013-01-12 02:54:00,32.1,26.0,30.02,NE,34,0.0,0.0,78,0.00,,---,0.00,VWS V14.01,2013-01-12 10:54:00,
2013-01-12 03:04:00,32.1,26.0,30.02,NE,34,0.0,0.0,78,0.00,,---,0.00,VWS V14.01,2013-01-12 11:04:00,
2013-01-12 03:09:00,32.1,26.0,30.02,NE,34,0.0,0.0,78,0.00,,---,0.00,VWS V14.01,2013-01-12 11:09:00,
2013-01-12 03:14:00,32.1,26.3,30.01,NE,34,0.0,0.0,79,0.00,,---,0.00,VWS V14.01,2013-01-12 11:14:00,
2013-01-12 03:24:00,32.2,26.4,30.01,NE,34,0.0,0.0,79,0.00,,---,0.00,VWS V14.01,2013-01-12 11:24:00,
2013-01-12 03:29:00,32.2,26.4,30.01,NE,34,0.0,0.0,79,0.00,,---,0.00,VWS V14.01,2013-01-12 11:29:00,
2013-01-12 03:34:00,32.2,26.4,30.01,NE,34,0.0,0.0,79,0.00,,---,0.00,VWS V14.01,2013-01-12 11:34:00,
2013-01-12 03:39:00,32.2,26.4,30.01,NE,34,0.0,0.0,79,0.00,,---,0.00,VWS V14.01,2013-01-12 11:39:00,
2013-01-12 03:44:00,32.4,26.6,30.01,NE,34,0.0,0.0,79,0.00,,---,0.00,VWS V14.01,2013-01-12 11:44:00,
2013-01-12 03:49:00,32.8,27.3,30.01,NE,34,0.0,0.0,80,0.00,,---,0.00,VWS V14.01,2013-01-12 11:49:00,
2013-01-12 03:59:00,33.7,27.9,30.00,NE,34,0.0,0.0,79,0.00,,---,0.00,VWS V14.01,2013-01-12 11:59:00,
2013-01-12 04:04:00,34.3,28.5,30.00,NE,34,0.0,0.0,79,0.00,,---,0.00,VWS V14.01,2013-01-12 12:04:00,
2013-01-12 04:09:00,34.9,29.1,30.00,NE,34,0.0,0.0,79,0.00,,---,0.00,VWS V14.01,2013-01-12 12:09:00,
2013-01-12 04:14:00,35.3,29.1,30.01,NE,34,0.0,0.0,78,0.00,,---,0.00,VWS V14.01,2013-01-12 12:14:00,
2013-01-12 04:24:00,35.8,29.0,30.01,NE,34,0.0,0.0,76,0.00,,---,0.00,VWS V14.01,2013-01-12 12:24:00,
2013-01-12 04:29:00,35.6,28.8,30.01,NE,34,0.0,0.0,76,0.00,,---,0.00,VWS V14.01,2013-01-12 12:29:00,
2013-01-12 04:34:00,35.5,28.7,30.01,NE,34,0.0,0.0,76,0.00,,---,0.00,VWS V14.01,2013-01-12 12:34:00,
2013-01-12 04:39:00,35.3,28.2,30.01,NE,34,0.0,0.0,75,0.00,,---,0.00,VWS V14.01,2013-01-12 12:39:00,
2013-01-12 04:44:00,35.3,28.2,30.01,NE,34,0.0,0.0,75,0.00,,---,0.00,VWS V14.01,2013-01-12 12:44:00,
2013-01-12 04:49:00,35.2,28.1,30.01,NE,34,0.0,0.0,75,0.00,,---,0.00,VWS V14.01,2013-01-12 12:49:00,
2013-01-12 04:54:00,35.0,27.9,30.01,NE,34,0.0,0.0,75,0.00,,---,0.00,VWS V14.01,2013-01-12 12:54:00,
2013-01-12 05:04:00,34.7,27.6,30.01,NE,34,0.0,0.0,75,0.00,,---,0.00,VWS V14.01,2013-01-12 13:04:00,
2013-01-12 05:09:00,34.6,27.5,30.01,NE,34,0.0,0.0,75,0.00,,---,0.00,VWS V14.01,2013-01-12 13:09:00,
2013-01-12 05:19:00,33.8,26.7,30.03,NE,34,0.0,0.0,75,0.00,,---,0.00,VWS V14.01,2013-01-12 13:19:00,
2013-01-12 05:24:00,33.5,26.4,30.03,NE,34,0.0,0.0,75,0.00,,---,0.00,VWS V14.01,2013-01-12 13:24:00,
2013-01-12 05:29:00,33.5,26.8,30.03,NE,34,0.0,0.0,76,0.00,,---,0.00,VWS V14.01,2013-01-12 13:29:00,
2013-01-12 05:34:00,33.5,26.8,30.03,NE,34,0.0,0.0,76,0.00,,---,0.00,VWS V14.01,2013-01-12 13:34:00,
2013-01-12 05:39:00,33.7,27.0,30.03,NE,34,0.0,0.0,76,0.00,,---,0.00,VWS V14.01,2013-01-12 13:39:00,
2013-01-12 05:49:00,33.7,27.0,30.04,NE,34,0.0,0.0,76,0.00,,---,0.00,VWS V14.01,2013-01-12 13:49:00,
2013-01-12 05:59:00,33.5,26.8,30.05,NE,34,0.0,0.0,76,0.00,,---,0.00,VWS V14.01,2013-01-12 13:59:00,
2013-01-12 06:04:00,33.5,26.8,30.05,NE,34,0.0,0.0,76,0.00,,---,0.00,VWS V14.01,2013-01-12 14:04:00,
2013-01-12 06:14:00,33.5,27.1,30.06,NE,34,0.0,0.0,77,0.00,,---,0.00,VWS V14.01,2013-01-12 14:14:00,
2013-01-12 06:19:00,33.4,27.0,30.06,NE,34,0.0,0.0,77,0.00,,---,0.00,VWS V14.01,2013-01-12 14:19:00,
2013-01-12 06:24:00,33.1,26.7,30.06,NE,34,0.0,0.0,77,0.00,,---,0.00,VWS V14.01,2013-01-12 14:24:00,
2013-01-12 06:29:00,32.9,26.5,30.07,NE,34,0.0,0.0,77,0.00,,---,0.00,VWS V14.01,2013-01-12 14:29:00,
2013-01-12 06:39:00,32.5,26.1,30.07,NE,34,0.0,0.0,77,0.00,,---,0.00,VWS V14.01,2013-01-12 14:39:00,
2013-01-12 06:44:00,32.4,26.0,30.07,NE,34,0.0,0.0,77,0.00,,---,0.00,VWS V14.01,2013-01-12 14:44:00,
2013-01-12 06:49:00,32.2,25.8,30.07,NE,34,0.0,0.0,77,0.00,,---,0.00,VWS V14.01,2013-01-12 14:49:00,
2013-01-12 06:54:00,32.1,25.7,30.07,NE,34,0.0,0.0,77,0.00,,---,0.00,VWS V14.01,2013-01-12 14:54:00,
2013-01-12 07:04:00,31.8,25.4,30.08,NE,34,0.0,0.0,77,0.00,,---,0.00,VWS V14.01,2013-01-12 15:04:00,
2013-01-12 07:14:00,31.5,25.4,30.09,NE,34,0.0,0.0,78,0.00,,---,0.00,VWS V14.01,2013-01-12 15:14:00,
2013-01-12 07:24:00,31.3,25.2,30.09,East,96,0.0,0.0,78,0.00,,---,0.00,VWS V14.01,2013-01-12 15:24:00,
2013-01-12 07:29:00,31.3,25.2,30.09,East,96,0.0,0.0,78,0.00,,---,0.00,VWS V14.01,2013-01-12 15:29:00,
2013-01-12 07:39:00,31.2,25.5,30.09,East,96,0.0,0.0,79,0.00,,---,0.00,VWS V14.01,2013-01-12 15:39:00,
2013-01-12 07:44:00,31.3,25.6,30.10,East,96,0.0,0.0,79,0.00,,---,0.00,VWS V14.01,2013-01-12 15:44:00,
2013-01-12 07:54:00,31.5,25.8,30.10,East,96,0.0,0.0,79,0.00,,---,0.00,VWS V14.01,2013-01-12 15:54:00,
2013-01-12 08:04:00,32.1,26.6,30.10,East,96,0.0,0.0,80,0.00,,---,0.00,VWS V14.01,2013-01-12 16:04:00,
2013-01-12 08:09:00,35.3,30.4,30.10,East,96,0.0,0.0,82,0.00,,---,0.00,VWS V14.01,2013-01-12 16:09:00,
2013-01-12 08:14:00,37.0,31.4,30.10,East,96,0.0,0.0,80,0.00,,---,0.00,VWS V14.01,2013-01-12 16:14:00,
2013-01-12 08:24:00,40.1,30.8,30.10,East,96,0.0,0.0,69,0.00,,---,0.00,VWS V14.01,2013-01-12 16:24:00,
2013-01-12 08:29:00,40.8,30.0,30.10,ESE,104,0.0,0.0,65,0.00,,---,0.00,VWS V14.01,2013-01-12 16:29:00,
2013-01-12 08:39:00,41.2,29.6,30.10,ESE,119,0.0,0.0,63,0.00,,---,0.00,VWS V14.01,2013-01-12 16:39:00,
2013-01-12 08:44:00,42.1,30.0,30.10,ESE,121,0.0,0.0,62,0.00,,---,0.00,VWS V14.01,2013-01-12 16:44:00,
2013-01-12 08:54:00,42.9,30.0,30.10,SE,127,0.0,0.0,60,0.00,,---,0.00,VWS V14.01,2013-01-12 16:54:00,
2013-01-12 09:04:00,43.8,30.4,30.10,SE,127,0.0,0.0,59,0.00,,---,0.00,VWS V14.01,2013-01-12 17:04:00,
2013-01-12 09:09:00,44.1,29.9,30.10,SE,127,0.0,0.0,57,0.00,,---,0.00,VWS V14.01,2013-01-12 17:09:00,
2013-01-12 09:14:00,44.6,30.3,30.10,ESE,107,0.0,0.0,57,0.00,,---,0.00,VWS V14.01,2013-01-12 17:14:00,
2013-01-12 09:19:00,45.7,30.0,30.10,ESE,113,0.0,0.0,54,0.00,,---,0.00,VWS V14.01,2013-01-12 17:19:00,
2013-01-12 09:29:00,47.7,30.5,30.10,SE,136,0.0,3.0,51,0.00,,---,0.00,VWS V14.01,2013-01-12 17:29:00,
2013-01-12 09:34:00,47.7,30.0,30.10,ESE,120,0.0,1.0,50,0.00,,---,0.00,VWS V14.01,2013-01-12 17:34:00,
2013-01-12 09:39:00,48.0,29.8,30.10,ESE,114,5.0,5.0,49,0.00,,---,0.00,VWS V14.01,2013-01-12 17:39:00,
2013-01-12 09:44:00,48.6,28.8,30.09,SE,128,0.0,5.0,46,0.00,,---,0.00,VWS V14.01,2013-01-12 17:44:00,
2013-01-12 09:54:00,49.1,28.1,30.09,ESE,120,3.0,7.0,44,0.00,,---,0.00,VWS V14.01,2013-01-12 17:54:00,
2013-01-12 10:04:00,50.5,28.9,30.09,ESE,110,2.0,6.0,43,0.00,,---,0.00,VWS V14.01,2013-01-12 18:04:00,
2013-01-12 10:09:00,51.0,29.9,30.09,ENE,76,4.0,5.0,44,0.00,,---,0.00,VWS V14.01,2013-01-12 18:09:00,
2013-01-12 10:14:00,51.0,29.3,30.09,ESE,116,0.0,7.0,43,0.00,,---,0.00,VWS V14.01,2013-01-12 18:14:00,
2013-01-12 10:24:00,51.6,26.8,30.09,ENE,73,2.0,7.0,38,0.00,,---,0.00,VWS V14.01,2013-01-12 18:24:00,
2013-01-12 10:29:00,51.1,25.1,30.08,NE,48,2.0,6.0,36,0.00,,---,0.00,VWS V14.01,2013-01-12 18:29:00,
2013-01-12 10:39:00,52.8,25.9,30.08,East,82,0.0,7.0,35,0.00,,---,0.00,VWS V14.01,2013-01-12 18:39:00,
2013-01-12 10:49:00,53.2,26.3,30.07,ENE,62,6.0,8.0,35,0.00,,---,0.00,VWS V14.01,2013-01-12 18:49:00,
2013-01-12 10:54:00,53.6,26.6,30.07,NNE,21,3.0,7.0,35,0.00,,---,0.00,VWS V14.01,2013-01-12 18:54:00,
2013-01-12 11:04:00,54.1,25.6,30.07,NNE,27,6.0,9.0,33,0.00,,---,0.00,VWS V14.01,2013-01-12 19:04:00,
2013-01-12 11:09:00,53.8,26.1,30.07,NE,51,7.0,10.0,34,0.00,,---,0.00,VWS V14.01,2013-01-12 19:09:00,
2013-01-12 11:19:00,54.7,26.2,30.06,NE,55,3.0,10.0,33,0.00,,---,0.00,VWS V14.01,2013-01-12 19:19:00,
2013-01-12 11:25:00,54.7,26.9,30.06,ESE,116,5.0,11.0,34,0.00,,---,0.00,VWS V14.01,2013-01-12 19:25:00,
2013-01-12 11:34:00,54.8,26.3,30.05,East,85,6.0,10.0,33,0.00,,---,0.00,VWS V14.01,2013-01-12 19:34:00,
2013-01-12 11:39:00,55.6,27.7,30.05,ESE,116,0.0,8.0,34,0.00,,---,0.00,VWS V14.01,2013-01-12 19:39:00,
2013-01-12 11:44:00,55.7,26.3,30.04,ESE,117,6.0,10.0,32,0.00,,---,0.00,VWS V14.01,2013-01-12 19:44:00,
2013-01-12 11:49:00,55.1,26.5,30.04,East,90,3.0,10.0,33,0.00,,---,0.00,VWS V14.01,2013-01-12 19:49:00,
2013-01-12 11:54:00,55.3,26.7,30.04,ESE,123,3.0,8.0,33,0.00,,---,0.00,VWS V14.01,2013-01-12 19:54:00,
2013-01-12 12:04:00,56.0,28.0,30.03,ESE,116,2.0,11.0,34,0.00,,---,0.00,VWS V14.01,2013-01-12 20:04:00,
2013-01-12 12:09:00,55.6,27.7,30.03,ESE,116,7.0,12.0,34,0.00,,---,0.00,VWS V14.01,2013-01-12 20:09:00,
2013-01-12 12:14:00,55.7,27.8,30.02,SE,133,8.0,12.0,34,0.00,,---,0.00,VWS V14.01,2013-01-12 20:14:00,
2013-01-12 12:24:00,55.4,26.8,30.02,ENE,65,6.0,8.0,33,0.00,,---,0.00,VWS V14.01,2013-01-12 20:24:00,
2013-01-12 12:29:00,55.4,26.8,30.02,East,100,0.0,7.0,33,0.00,,---,0.00,VWS V14.01,2013-01-12 20:29:00,
2013-01-12 12:39:00,55.7,26.3,30.02,SE,137,5.0,9.0,32,0.00,,---,0.00,VWS V14.01,2013-01-12 20:39:00,
2013-01-12 12:44:00,55.6,26.2,30.01,SSE,155,0.0,7.0,32,0.00,,---,0.00,VWS V14.01,2013-01-12 20:44:00,
2013-01-12 12:54:00,56.0,28.0,30.01,SSE,157,0.0,7.0,34,0.00,,---,0.00,VWS V14.01,2013-01-12 20:54:00,
2013-01-12 13:04:00,56.5,26.2,30.01,SSE,161,5.0,8.0,31,0.00,,---,0.00,VWS V14.01,2013-01-12 21:04:00,
2013-01-12 13:09:00,56.0,26.6,30.01,South,169,0.0,9.0,32,0.00,,---,0.00,VWS V14.01,2013-01-12 21:09:00,
2013-01-12 13:19:00,56.5,27.0,30.01,SSW,213,0.0,9.0,32,0.00,,---,0.00,VWS V14.01,2013-01-12 21:19:00,
2013-01-12 13:24:00,55.9,26.5,30.01,SSE,162,0.0,5.0,32,0.00,,---,0.00,VWS V14.01,2013-01-12 21:24:00,
2013-01-12 13:29:00,56.3,26.8,30.00,SSE,164,0.0,5.0,32,0.00,,---,0.00,VWS V14.01,2013-01-12 21:29:00,
2013-01-12 13:34:00,56.3,26.1,30.00,South,191,0.0,10.0,31,0.00,,---,0.00,VWS V14.01,2013-01-12 21:34:00,
2013-01-12 13:39:00,56.5,25.5,30.00,ESE,112,0.0,5.0,30,0.00,,---,0.00,VWS V14.01,2013-01-12 21:39:00,
2013-01-12 13:49:00,56.5,27.0,30.00,SSW,195,0.0,0.0,32,0.00,,---,0.00,VWS V14.01,2013-01-12 21:49:00,
2013-01-12 13:54:00,56.6,26.3,30.00,SSW,195,0.0,0.0,31,0.00,,---,0.00,VWS V14.01,2013-01-12 21:54:00,
2013-01-12 13:59:00,56.0,25.8,30.00,SSW,195,0.0,0.0,31,0.00,,---,0.00,VWS V14.01,2013-01-12 21:59:00,
2013-01-12 14:09:00,56.0,25.8,30.00,West,264,0.0,1.0,31,0.00,,---,0.00,VWS V14.01,2013-01-12 22:09:00,
2013-01-12 14:14:00,56.5,26.2,30.00,WSW,248,0.0,1.0,31,0.00,,---,0.00,VWS V14.01,2013-01-12 22:14:00,
2013-01-12 14:19:00,56.7,26.4,30.00,WSW,246,0.0,0.0,31,0.00,,---,0.00,VWS V14.01,2013-01-12 22:19:00,
2013-01-12 14:24:00,56.5,26.2,30.00,South,175,0.0,1.0,31,0.00,,---,0.00,VWS V14.01,2013-01-12 22:24:00,
2013-01-12 14:34:00,56.7,27.2,30.00,SW,219,0.0,1.0,32,0.00,,---,0.00,VWS V14.01,2013-01-12 22:34:00,
2013-01-12 14:39:00,56.0,26.6,30.00,SW,215,0.0,0.0,32,0.00,,---,0.00,VWS V14.01,2013-01-12 22:39:00,
2013-01-12 14:49:00,55.7,25.5,29.99,NW,320,0.0,0.0,31,0.00,,---,0.00,VWS V14.01,2013-01-12 22:49:00,
2013-01-12 14:59:00,56.0,25.8,29.99,NNW,333,0.0,0.0,31,0.00,,---,0.00,VWS V14.01,2013-01-12 22:59:00,
2013-01-12 15:04:00,55.9,25.7,29.99,NNW,328,0.0,0.0,31,0.00,,---,0.00,VWS V14.01,2013-01-12 23:04:00,
2013-01-12 15:14:00,56.0,28.0,30.00,SW,223,0.0,7.0,34,0.00,,---,0.00,VWS V14.01,2013-01-12 23:14:00,
2013-01-12 15:19:00,55.3,28.1,30.00,WNW,284,0.0,7.0,35,0.00,,---,0.00,VWS V14.01,2013-01-12 23:19:00,
2013-01-12 15:29:00,54.4,26.6,30.00,West,271,8.0,11.0,34,0.00,,---,0.00,VWS V14.01,2013-01-12 23:29:00,
2013-01-12 15:34:00,53.8,26.1,30.00,SW,217,7.0,11.0,34,0.00,,---,0.00,VWS V14.01,2013-01-12 23:34:00,
2013-01-12 15:39:00,53.3,25.7,30.00,WSW,253,7.0,11.0,34,0.00,,---,0.00,VWS V14.01,2013-01-12 23:39:00,
2013-01-12 15:49:00,52.9,26.0,30.00,West,265,0.0,11.0,35,0.00,,---,0.00,VWS V14.01,2013-01-12 23:49:00,
2013-01-12 15:54:00,52.8,25.2,30.00,WSW,253,0.0,11.0,34,0.00,,---,0.00,VWS V14.01,2013-01-12 23:54:00,
2013-01-12 16:04:00,52.3,25.5,30.00,SW,234,3.0,7.0,35,0.00,,---,0.00,VWS V14.01,2013-01-13 00:04:00,
2013-01-12 16:14:00,51.9,25.1,30.00,West,260,2.0,6.0,35,0.00,,---,0.00,VWS V14.01,2013-01-13 00:14:00,
2013-01-12 16:19:00,51.6,25.5,30.00,WSW,246,7.0,7.0,36,0.00,,---,0.00,VWS V14.01,2013-01-13 00:19:00,
2013-01-12 16:24:00,51.1,25.1,30.00,SW,226,2.0,7.0,36,0.00,,---,0.00,VWS V14.01,2013-01-13 00:24:00,
2013-01-12 16:34:00,50.2,25.6,30.00,SW,223,0.0,6.0,38,0.00,,---,0.00,VWS V14.01,2013-01-13 00:34:00,
2013-01-12 16:44:00,49.8,25.9,30.00,SW,224,0.0,5.0,39,0.00,,---,0.00,VWS V14.01,2013-01-13 00:44:00,
2013-01-12 16:49:00,49.8,26.5,30.00,SW,220,0.0,6.0,40,0.00,,---,0.00,VWS V14.01,2013-01-13 00:49:00,
2013-01-12 16:54:00,49.6,26.3,30.00,SSW,213,0.0,4.0,40,0.00,,---,0.00,VWS V14.01,2013-01-13 00:54:00,
2013-01-12 17:04:00,49.1,27.0,30.00,SSW,213,0.0,0.0,42,0.00,,---,0.00,VWS V14.01,2013-01-13 01:04:00,
2013-01-12 17:14:00,48.6,27.1,30.00,SW,216,0.0,0.0,43,0.00,,---,0.00,VWS V14.01,2013-01-13 01:14:00,
2013-01-12 17:19:00,48.2,27.3,30.00,SW,216,0.0,0.0,44,0.00,,---,0.00,VWS V14.01,2013-01-13 01:19:00,
2013-01-12 17:29:00,47.3,28.1,30.01,SW,217,0.0,0.0,47,0.00,,---,0.00,VWS V14.01,2013-01-13 01:29:00,
2013-01-12 17:34:00,47.0,28.3,30.01,SW,219,0.0,0.0,48,0.00,,---,0.00,VWS V14.01,2013-01-13 01:34:00,
2013-01-12 17:44:00,46.4,28.8,30.01,SW,219,0.0,0.0,50,0.00,,---,0.00,VWS V14.01,2013-01-13 01:44:00,
2013-01-12 17:49:00,46.0,28.9,30.01,SW,219,0.0,0.0,51,0.00,,---,0.00,VWS V14.01,2013-01-13 01:49:00,
2013-01-12 17:54:00,45.5,29.8,30.01,SW,219,0.0,0.0,54,0.00,,---,0.00,VWS V14.01,2013-01-13 01:54:00,
2013-01-12 18:04:00,44.3,29.6,30.02,SW,219,0.0,0.0,56,0.00,,---,0.00,VWS V14.01,2013-01-13 02:04:00,
2013-01-12 18:09:00,43.9,29.7,30.02,SW,219,0.0,0.0,57,0.00,,---,0.00,VWS V14.01,2013-01-13 02:09:00,
2013-01-12 18:14:00,43.3,29.5,30.02,NNW,337,0.0,0.0,58,0.00,,---,0.00,VWS V14.01,2013-01-13 02:14:00,
2013-01-12 18:19:00,42.8,29.5,30.02,NNW,337,0.0,0.0,59,0.00,,---,0.00,VWS V14.01,2013-01-13 02:19:00,
2013-01-12 18:24:00,42.3,29.0,30.02,NNW,337,0.0,0.0,59,0.00,,---,0.00,VWS V14.01,2013-01-13 02:24:00,
2013-01-12 18:34:00,41.6,29.2,30.02,North,0,0.0,0.0,61,0.00,,---,0.00,VWS V14.01,2013-01-13 02:34:00,
2013-01-12 18:39:00,41.5,29.1,30.02,North,0,0.0,0.0,61,0.00,,---,0.00,VWS V14.01,2013-01-13 02:39:00,
2013-01-12 18:49:00,41.3,29.3,30.03,North,0,0.0,0.0,62,0.00,,---,0.00,VWS V14.01,2013-01-13 02:49:00,
2013-01-12 18:59:00,41.1,29.1,30.03,North,0,0.0,0.0,62,0.00,,---,0.00,VWS V14.01,2013-01-13 02:59:00,
2013-01-12 19:04:00,40.8,28.8,30.03,North,0,0.0,0.0,62,0.00,,---,0.00,VWS V14.01,2013-01-13 03:04:00,
2013-01-12 19:09:00,40.5,28.5,30.03,North,0,0.0,0.0,62,0.00,,---,0.00,VWS V14.01,2013-01-13 03:09:00,
2013-01-12 19:19:00,39.9,28.7,30.03,North,0,0.0,0.0,64,0.00,,---,0.00,VWS V14.01,2013-01-13 03:19:00,
2013-01-12 19:29:00,39.5,28.7,30.03,North,0,0.0,0.0,65,0.00,,---,0.00,VWS V14.01,2013-01-13 03:29:00,
2013-01-12 19:34:00,39.2,28.8,30.03,North,0,0.0,0.0,66,0.00,,---,0.00,VWS V14.01,2013-01-13 03:34:00,
2013-01-12 19:39:00,39.1,29.1,30.03,North,0,0.0,0.0,67,0.00,,---,0.00,VWS V14.01,2013-01-13 03:39:00,
2013-01-12 19:44:00,38.9,28.9,30.03,North,0,0.0,0.0,67,0.00,,---,0.00,VWS V14.01,2013-01-13 03:44:00,
2013-01-12 19:54:00,38.6,29.0,30.03,North,0,0.0,0.0,68,0.00,,---,0.00,VWS V14.01,2013-01-13 03:54:00,
2013-01-12 19:59:00,38.5,28.9,30.03,North,0,0.0,0.0,68,0.00,,---,0.00,VWS V14.01,2013-01-13 03:59:00,
2013-01-12 20:04:00,38.3,28.7,30.03,North,0,0.0,0.0,68,0.00,,---,0.00,VWS V14.01,2013-01-13 04:04:00,
2013-01-12 20:09:00,38.0,28.4,30.03,North,0,0.0,0.0,68,0.00,,---,0.00,VWS V14.01,2013-01-13 04:09:00,
2013-01-12 20:19:00,37.5,27.9,30.02,North,0,0.0,0.0,68,0.00,,---,0.00,VWS V14.01,2013-01-13 04:19:00,
2013-01-12 20:24:00,37.2,27.6,30.02,North,0,0.0,0.0,68,0.00,,---,0.00,VWS V14.01,2013-01-13 04:24:00,
2013-01-12 20:29:00,36.9,27.3,30.03,North,0,0.0,0.0,68,0.00,,---,0.00,VWS V14.01,2013-01-13 04:29:00,
2013-01-12 20:39:00,36.5,27.0,30.03,North,0,0.0,0.0,68,0.00,,---,0.00,VWS V14.01,2013-01-13 04:39:00,
2013-01-12 20:44:00,36.2,26.7,30.03,North,0,0.0,0.0,68,0.00,,---,0.00,VWS V14.01,2013-01-13 04:44:00,
2013-01-12 20:54:00,35.8,26.6,30.03,North,0,0.0,0.0,69,0.00,,---,0.00,VWS V14.01,2013-01-13 04:54:00,
2013-01-12 21:04:00,35.3,26.2,30.03,North,0,0.0,0.0,69,0.00,,---,0.00,VWS V14.01,2013-01-13 05:04:00,
2013-01-12 21:09:00,35.2,26.1,30.03,North,0,0.0,0.0,69,0.00,,---,0.00,VWS V14.01,2013-01-13 05:09:00,
2013-01-12 21:14:00,34.9,25.8,30.03,North,0,0.0,0.0,69,0.00,,---,0.00,VWS V14.01,2013-01-13 05:14:00,
2013-01-12 21:19:00,34.7,25.9,30.03,North,0,0.0,0.0,70,0.00,,---,0.00,VWS V14.01,2013-01-13 05:19:00,
2013-01-12 21:24:00,34.4,25.6,30.03,North,0,0.0,0.0,70,0.00,,---,0.00,VWS V14.01,2013-01-13 05:24:00,
2013-01-12 21:34:00,34.1,25.7,30.03,North,0,0.0,0.0,71,0.00,,---,0.00,VWS V14.01,2013-01-13 05:34:00,
2013-01-12 21:39:00,34.0,25.6,30.03,North,0,0.0,0.0,71,0.00,,---,0.00,VWS V14.01,2013-01-13 05:39:00,
2013-01-12 21:49:00,33.7,25.3,30.03,North,0,0.0,0.0,71,0.00,,---,0.00,VWS V14.01,2013-01-13 05:49:00,
2013-01-12 21:54:00,33.5,25.5,30.03,North,0,0.0,0.0,72,0.00,,---,0.00,VWS V14.01,2013-01-13 05:54:00,
2013-01-12 21:59:00,33.4,25.4,30.04,North,0,0.0,0.0,72,0.00,,---,0.00,VWS V14.01,2013-01-13 05:59:00,
2013-01-12 22:09:00,32.9,24.9,30.04,North,0,0.0,0.0,72,0.00,,---,0.00,VWS V14.01,2013-01-13 06:09:00,
2013-01-12 22:14:00,32.9,24.9,30.04,North,0,0.0,0.0,72,0.00,,---,0.00,VWS V14.01,2013-01-13 06:14:00,
2013-01-12 22:19:00,32.8,25.1,30.04,North,0,0.0,0.0,73,0.00,,---,0.00,VWS V14.01,2013-01-13 06:19:00,
2013-01-12 22:24:00,32.7,25.0,30.04,North,0,0.0,0.0,73,0.00,,---,0.00,VWS V14.01,2013-01-13 06:24:00,
2013-01-12 22:29:00,32.7,25.0,30.04,North,0,0.0,0.0,73,0.00,,---,0.00,VWS V14.01,2013-01-13 06:29:00,
2013-01-12 22:34:00,32.5,24.8,30.04,North,0,0.0,0.0,73,0.00,,---,0.00,VWS V14.01,2013-01-13 06:34:00,
2013-01-12 22:44:00,32.4,25.0,30.04,North,0,0.0,0.0,74,0.00,,---,0.00,VWS V14.01,2013-01-13 06:44:00,
2013-01-12 22:54:00,32.4,25.0,30.04,North,0,0.0,0.0,74,0.00,,---,0.00,VWS V14.01,2013-01-13 06:54:00,
2013-01-12 22:59:00,32.4,25.4,30.05,North,0,0.0,0.0,75,0.00,,---,0.00,VWS V14.01,2013-01-13 06:59:00,
2013-01-12 23:09:00,32.2,25.2,30.05,North,0,0.0,0.0,75,0.00,,---,0.00,VWS V14.01,2013-01-13 07:09:00,
2013-01-12 23:14:00,32.1,25.1,30.04,North,0,0.0,0.0,75,0.00,,---,0.00,VWS V14.01,2013-01-13 07:14:00,
2013-01-12 23:19:00,32.1,25.1,30.04,North,0,0.0,0.0,75,0.00,,---,0.00,VWS V14.01,2013-01-13 07:19:00,
2013-01-12 23:29:00,31.9,25.2,30.04,North,0,0.0,0.0,76,0.00,,---,0.00,VWS V14.01,2013-01-13 07:29:00,
2013-01-12 23:34:00,31.9,25.2,30.04,North,0,0.0,0.0,76,0.00,,---,0.00,VWS V14.01,2013-01-13 07:34:00,
2013-01-12 23:44:00,32.1,25.7,30.03,North,0,0.0,0.0,77,0.00,,---,0.00,VWS V14.01,2013-01-13 07:44:00,
2013-01-12 23:49:00,32.2,25.8,30.03,North,0,0.0,0.0,77,0.00,,---,0.00,VWS V14.01,2013-01-13 07:49:00,
2013-01-12 23:59:00,32.4,26.3,30.03,North,0,0.0,0.0,78,0.00,,---,0.00,VWS V14.01,2013-01-13 07:59:00,